Weather at Princess Lane Heliport

Public forecast

Using degrees Fahrenheit for public forecast. Weather courtesy of forecast.io.

Closest aviation weather report (METAR) to Princess Lane Heliport

Closest report is Worcester Regional Airport, 14.3 nm (26.4 km) W. Retrieved 2020/09/26 16:54 UTC (28 minutes ago):

KORH 261654Z 19008KT 10SM CLR 22/12 A3012 RMK AO2 SLP197 T02170117

Closest aviation forecast (TAF) to Princess Lane Heliport

Closest forecast is Worcester Regional Airport, 14.3 nm (26.4 km) W. Retrieved 2020/09/26 12:28 UTC (5 hours ago):

TAF KORH 261125Z 2612/2712 23004KT 1/4SM FG BKN003 FM261400 21005KT 1/2SM FG BKN008 FM261500 20005KT P6SM SCT250 FM262100 20008KT P6SM BKN060 FM270300 20006KT 3SM BR OVC008 FM270900 22006KT 1/4SM FG OVC003